Time;durP1;ratioP1;P1;durP2;ratioP2;P2;SDS_P1;SDS_P2;PMS_P1;PMS_P2;Temp;Humidity;BMP_temperature;BMP_pressure;BME280_temperature;BME280_humidity;BME280_pressure;Samples;Min_cycle;Max_cycle;Signal;HPM_P1;HPM_P2
2021/07/16 00:00:19;;;;;;;20.95;7.57;;;17.90;79.40;;;;;;4919127;29;20051;-84
2021/07/16 00:02:49;;;;;;;21.20;8.18;;;17.90;79.50;;;;;;4918661;29;20562;-87
2021/07/16 00:05:36;;;;;;;20.38;8.07;;;17.90;79.50;;;;;;4935409;28;20470;-83
2021/07/16 00:08:04;;;;;;;21.65;8.75;;;17.90;79.70;;;;;;4954564;28;20499;-85
2021/07/16 00:10:31;;;;;;;25.35;8.07;;;17.90;79.70;;;;;;4937239;29;20571;-86
2021/07/16 00:13:00;;;;;;;19.02;7.03;;;17.90;79.80;;;;;;4937919;29;20051;-86
2021/07/16 00:15:30;;;;;;;18.00;8.27;;;17.80;79.90;;;;;;4939730;28;20430;-84
2021/07/16 00:18:02;;;;;;;21.48;7.55;;;17.80;79.90;;;;;;4938611;28;20062;-86
2021/07/16 00:20:34;;;;;;;20.48;7.90;;;17.80;80.00;;;;;;4938997;29;20499;-86
2021/07/16 00:23:04;;;;;;;30.77;8.40;;;17.70;80.10;;;;;;4941024;29;20487;-85
2021/07/16 00:25:42;;;;;;;20.63;8.40;;;17.70;80.20;;;;;;4941208;28;20063;-88
2021/07/16 00:28:21;;;;;;;23.73;9.10;;;17.70;80.30;;;;;;4958006;28;20086;-85
2021/07/16 00:30:56;;;;;;;16.50;7.82;;;17.80;80.30;;;;;;4941318;28;20059;-86
2021/07/16 00:33:23;;;;;;;23.88;9.05;;;17.70;80.30;;;;;;4941051;28;20051;-87
2021/07/16 00:35:51;;;;;;;18.95;8.65;;;17.70;80.40;;;;;;4940977;29;20499;-85
2021/07/16 00:38:19;;;;;;;19.15;7.63;;;17.70;80.30;;;;;;4941181;28;20118;-85
2021/07/16 00:40:47;;;;;;;20.67;8.10;;;17.70;80.30;;;;;;4940805;28;20484;-87
2021/07/16 00:43:21;;;;;;;17.67;7.88;;;17.70;80.30;;;;;;4941916;28;20051;-85
2021/07/16 00:46:24;;;;;;;;;;;;;;;;;;;;;
2021/07/16 00:49:05;;;;;;;21.63;7.82;;;17.60;80.30;;;;;;4957544;28;20051;-86
2021/07/16 00:51:40;;;;;;;18.50;7.88;;;17.70;80.40;;;;;;4941272;28;20065;-87
2021/07/16 00:54:08;;;;;;;19.40;7.75;;;17.60;80.40;;;;;;4940816;28;20071;-87
2021/07/16 00:57:06;;;;;;;16.40;8.02;;;17.60;80.40;;;;;;4936152;28;20396;-86
2021/07/16 01:00:05;;;;;;;;;;;;;;;;;;;;;
2021/07/16 01:02:47;;;;;;;22.05;9.00;;;17.60;80.40;;;;;;4957440;28;20081;-88
2021/07/16 01:05:37;;;;;;;20.00;8.38;;;17.50;80.50;;;;;;4941719;28;20047;-86
2021/07/16 01:08:11;;;;;;;19.10;8.25;;;17.50;80.60;;;;;;4940934;28;20054;-88
2021/07/16 01:10:59;;;;;;;21.77;8.02;;;17.50;80.60;;;;;;4933171;28;20055;-86
2021/07/16 01:13:33;;;;;;;23.38;8.57;;;17.50;80.70;;;;;;4941003;28;20130;-85
2021/07/16 01:16:35;;;;;;;19.05;8.35;;;17.50;80.80;;;;;;4943935;28;20102;-86
2021/07/16 01:19:10;;;;;;;20.77;8.95;;;17.50;80.90;;;;;;4940281;28;20044;-85
2021/07/16 01:21:41;;;;;;;16.70;8.05;;;17.50;81.00;;;;;;4940431;28;20047;-85
2021/07/16 01:24:19;;;;;;;25.75;9.25;;;17.50;81.00;;;;;;4939969;28;20073;-86
2021/07/16 01:26:55;;;;;;;19.00;8.23;;;17.40;81.00;;;;;;4940696;28;20055;-87
2021/07/16 01:29:36;;;;;;;22.05;8.18;;;17.40;81.10;;;;;;4940343;28;20059;-88
2021/07/16 01:32:29;;;;;;;21.15;8.60;;;17.40;81.10;;;;;;4903611;29;20052;-89
2021/07/16 01:35:19;;;;;;;18.30;7.88;;;17.40;81.10;;;;;;4901158;29;20543;-85
2021/07/16 01:38:08;;;;;;;18.42;8.10;;;17.40;81.10;;;;;;4866024;29;20045;-85
2021/07/16 01:40:37;;;;;;;21.65;8.02;;;17.40;81.10;;;;;;4863854;29;20486;-87
2021/07/16 01:43:27;;;;;;;24.92;9.60;;;17.40;81.10;;;;;;4841742;29;20541;-86
2021/07/16 01:46:28;;;;;;;;;;;;;;;;;;;;;
2021/07/16 01:49:25;;;;;;;18.15;8.07;;;17.40;81.30;;;;;;4759353;30;20064;-85
2021/07/16 01:51:53;;;;;;;16.27;7.38;;;17.40;81.30;;;;;;4769653;30;20055;-86
2021/07/16 01:54:24;;;;;;;13.52;8.00;;;17.40;81.30;;;;;;4778610;29;20051;-85
2021/07/16 01:56:52;;;;;;;16.75;7.72;;;17.40;81.30;;;;;;4807213;29;20046;-86
2021/07/16 01:59:21;;;;;;;17.58;7.88;;;17.40;81.30;;;;;;4822302;29;20064;-86
2021/07/16 02:01:48;;;;;;;18.98;7.85;;;17.40;81.40;;;;;;4845557;29;20421;-85
2021/07/16 02:04:16;;;;;;;19.38;7.63;;;17.40;81.40;;;;;;4908771;28;20130;-87
2021/07/16 02:06:42;;;;;;;19.17;7.85;;;17.40;81.40;;;;;;4939133;29;20063;-87
2021/07/16 02:09:10;;;;;;;18.75;7.43;;;17.40;81.40;;;;;;4939581;29;20055;-84
2021/07/16 02:11:39;;;;;;;17.90;7.32;;;17.40;81.40;;;;;;4939537;28;20063;-87
2021/07/16 02:14:06;;;;;;;18.55;7.80;;;17.40;81.50;;;;;;4939355;28;20507;-88
2021/07/16 02:16:33;;;;;;;16.10;8.20;;;17.40;81.40;;;;;;4941219;29;20133;-84
2021/07/16 02:19:00;;;;;;;14.82;7.22;;;17.30;81.40;;;;;;4939284;28;20419;-86
2021/07/16 02:21:27;;;;;;;21.55;8.07;;;17.30;81.40;;;;;;4938751;28;20059;-88
2021/07/16 02:23:54;;;;;;;20.08;8.02;;;17.30;81.40;;;;;;4939272;28;20058;-86
2021/07/16 02:26:21;;;;;;;21.40;8.23;;;17.20;81.40;;;;;;4939286;28;20051;-86
2021/07/16 02:28:48;;;;;;;22.08;8.02;;;17.20;81.50;;;;;;4938690;29;20503;-85
2021/07/16 02:31:16;;;;;;;17.92;8.20;;;17.20;81.50;;;;;;4939195;29;20059;-86
2021/07/16 02:33:43;;;;;;;14.90;8.15;;;17.20;81.50;;;;;;4939106;29;20051;-86
2021/07/16 02:36:10;;;;;;;18.67;7.95;;;17.20;81.60;;;;;;4955387;28;20499;-85
2021/07/16 02:38:38;;;;;;;21.70;8.93;;;17.20;81.60;;;;;;4939068;29;20495;-88
2021/07/16 02:41:08;;;;;;;17.80;8.05;;;17.20;81.70;;;;;;4939044;29;20070;-87
2021/07/16 02:43:36;;;;;;;18.83;8.52;;;17.10;81.70;;;;;;4938263;29;20082;-86
2021/07/16 02:46:03;;;;;;;21.70;8.15;;;17.10;81.70;;;;;;4938658;29;20463;-87
2021/07/16 02:48:30;;;;;;;20.63;9.00;;;17.10;81.70;;;;;;4938953;29;20109;-86
2021/07/16 02:50:57;;;;;;;23.23;9.43;;;17.10;81.70;;;;;;4938382;28;20106;-83
2021/07/16 02:53:24;;;;;;;27.55;8.70;;;17.10;81.70;;;;;;4938666;28;20055;-85
2021/07/16 02:55:53;;;;;;;20.65;8.02;;;17.10;81.80;;;;;;4938656;29;20455;-86
2021/07/16 02:58:20;;;;;;;25.77;9.18;;;17.10;81.80;;;;;;4938821;28;20078;-85
2021/07/16 03:00:47;;;;;;;19.58;8.80;;;17.00;81.80;;;;;;4938544;28;20522;-86
2021/07/16 03:03:15;;;;;;;24.38;8.75;;;17.10;81.80;;;;;;4938984;29;20055;-84
2021/07/16 03:05:42;;;;;;;24.75;8.85;;;17.00;81.80;;;;;;4954954;28;20052;-84
2021/07/16 03:08:11;;;;;;;22.00;8.57;;;17.10;81.80;;;;;;4938705;28;20047;-86
2021/07/16 03:10:44;;;;;;;21.02;8.57;;;17.00;81.80;;;;;;4938117;28;20051;-85
2021/07/16 03:13:17;;;;;;;18.88;8.38;;;17.00;81.80;;;;;;4938501;29;20055;-85
2021/07/16 03:15:46;;;;;;;18.40;8.25;;;17.00;81.80;;;;;;4940562;29;20145;-86
2021/07/16 03:18:13;;;;;;;19.20;8.38;;;17.00;81.70;;;;;;4938395;29;20054;-84
2021/07/16 03:20:43;;;;;;;16.73;8.38;;;17.00;81.80;;;;;;4955049;28;20519;-85
2021/07/16 03:23:12;;;;;;;18.52;8.48;;;17.00;81.70;;;;;;4938193;29;20059;-84
2021/07/16 03:25:43;;;;;;;17.27;8.70;;;16.90;81.80;;;;;;4938358;29;20074;-88
2021/07/16 03:28:11;;;;;;;21.95;7.88;;;16.90;81.80;;;;;;4938031;28;20058;-84
2021/07/16 03:30:39;;;;;;;15.35;7.68;;;16.90;81.90;;;;;;4934586;29;20567;-84
2021/07/16 03:33:07;;;;;;;19.50;7.55;;;16.90;81.90;;;;;;4934689;28;20052;-85
2021/07/16 03:35:34;;;;;;;17.73;7.60;;;16.90;81.90;;;;;;4934677;28;20056;-86
2021/07/16 03:38:01;;;;;;;17.35;7.65;;;16.90;81.90;;;;;;4934549;29;20531;-85
2021/07/16 03:40:29;;;;;;;20.25;8.15;;;16.90;81.80;;;;;;4934731;29;20420;-84
2021/07/16 03:43:00;;;;;;;20.70;7.63;;;16.90;81.80;;;;;;4934917;29;20058;-85
2021/07/16 03:45:33;;;;;;;21.83;8.35;;;16.90;81.80;;;;;;4934702;28;20051;-86
2021/07/16 03:48:01;;;;;;;21.50;7.80;;;16.90;81.70;;;;;;4934680;28;20055;-85
2021/07/16 03:50:28;;;;;;;19.00;7.88;;;16.90;81.70;;;;;;4935122;28;20075;-84
2021/07/16 03:52:55;;;;;;;18.52;7.93;;;16.80;81.70;;;;;;4934300;29;20490;-84
2021/07/16 03:55:22;;;;;;;14.88;7.63;;;16.80;81.70;;;;;;4935055;29;20422;-85
2021/07/16 03:57:50;;;;;;;16.15;8.38;;;16.80;81.70;;;;;;4938257;29;20139;-87
2021/07/16 04:00:28;;;;;;;21.10;8.57;;;16.80;81.70;;;;;;4938400;29;20427;-84
2021/07/16 04:03:01;;;;;;;22.20;8.73;;;16.80;81.70;;;;;;4939039;29;20419;-87
2021/07/16 04:05:33;;;;;;;22.27;8.53;;;16.80;81.70;;;;;;4939567;29;20059;-84
2021/07/16 04:08:03;;;;;;;21.85;8.68;;;16.70;81.70;;;;;;4957482;28;20059;-84
2021/07/16 04:10:32;;;;;;;20.95;8.80;;;16.70;81.70;;;;;;4945853;28;20070;-84
2021/07/16 04:13:03;;;;;;;23.13;10.05;;;16.70;81.70;;;;;;4938001;29;20058;-84
2021/07/16 04:15:30;;;;;;;19.67;9.00;;;16.70;81.70;;;;;;4940180;28;20059;-85
2021/07/16 04:17:59;;;;;;;22.00;9.35;;;16.70;81.70;;;;;;4937668;29;20460;-85
2021/07/16 04:20:28;;;;;;;22.83;9.30;;;16.60;81.70;;;;;;4938302;28;20052;-85
2021/07/16 04:22:56;;;;;;;19.65;9.35;;;16.60;81.60;;;;;;4938048;29;20520;-86
2021/07/16 04:25:26;;;;;;;26.40;9.40;;;16.60;81.60;;;;;;4938155;29;20061;-84
2021/07/16 04:28:01;;;;;;;19.33;8.48;;;16.60;81.60;;;;;;4938200;28;20059;-84
2021/07/16 04:30:28;;;;;;;24.70;9.02;;;16.60;81.60;;;;;;4937544;29;20496;-87
2021/07/16 04:32:59;;;;;;;21.63;8.43;;;16.50;81.50;;;;;;4938808;28;20607;-85
2021/07/16 04:35:29;;;;;;;19.38;8.38;;;16.50;81.50;;;;;;4938000;28;20103;-85
2021/07/16 04:37:57;;;;;;;19.10;7.68;;;16.50;81.40;;;;;;4937642;28;20437;-88
2021/07/16 04:40:25;;;;;;;18.48;7.20;;;16.40;81.40;;;;;;4938087;29;20491;-83
2021/07/16 04:42:55;;;;;;;23.60;7.55;;;16.40;81.30;;;;;;4937407;29;20405;-85
2021/07/16 04:45:22;;;;;;;20.15;6.88;;;16.40;81.20;;;;;;4937786;28;20062;-86
2021/07/16 04:47:50;;;;;;;17.40;7.03;;;16.40;81.20;;;;;;4937190;29;20504;-82
2021/07/16 04:50:19;;;;;;;14.50;6.38;;;16.40;81.10;;;;;;4937568;29;20106;-84
2021/07/16 04:52:49;;;;;;;16.67;6.57;;;16.40;81.00;;;;;;4937453;29;20083;-85
2021/07/16 04:55:17;;;;;;;15.98;6.78;;;16.40;81.00;;;;;;4938797;28;20114;-90
2021/07/16 04:57:44;;;;;;;20.67;7.43;;;16.30;81.00;;;;;;4937487;29;20075;-88
2021/07/16 05:00:13;;;;;;;15.10;6.78;;;16.30;80.90;;;;;;4937383;29;20054;-90
2021/07/16 05:02:40;;;;;;;13.60;6.70;;;16.40;80.90;;;;;;4937569;28;20058;-88
2021/07/16 05:05:08;;;;;;;14.55;6.97;;;16.30;80.80;;;;;;4937152;29;20480;-90
2021/07/16 05:07:35;;;;;;;13.40;6.15;;;16.30;80.70;;;;;;4937066;29;20051;-88
2021/07/16 05:10:05;;;;;;;16.83;6.60;;;16.30;80.80;;;;;;4937134;28;20055;-91
2021/07/16 05:12:34;;;;;;;21.50;6.97;;;16.20;80.80;;;;;;4937576;29;20416;-87
2021/07/16 05:15:06;;;;;;;15.10;6.75;;;16.20;80.70;;;;;;4939265;28;20055;-90
2021/07/16 05:17:37;;;;;;;16.38;6.18;;;16.20;80.70;;;;;;4936887;29;20122;-90
2021/07/16 05:20:09;;;;;;;17.58;6.78;;;16.20;80.70;;;;;;4936993;29;20044;-89
2021/07/16 05:22:36;;;;;;;21.65;7.85;;;16.20;80.80;;;;;;4937371;29;20067;-90
2021/07/16 05:25:09;;;;;;;14.55;6.82;;;16.20;80.90;;;;;;4937284;29;20052;-90
2021/07/16 05:27:38;;;;;;;17.00;7.03;;;16.20;80.90;;;;;;4937148;28;20106;-88
2021/07/16 05:30:06;;;;;;;17.08;6.70;;;16.20;80.90;;;;;;4936375;28;20059;-84
2021/07/16 05:32:33;;;;;;;18.55;7.13;;;16.20;80.80;;;;;;4938168;28;20082;-83
2021/07/16 05:35:02;;;;;;;16.25;6.15;;;16.20;80.80;;;;;;4936926;28;20094;-89
2021/07/16 05:37:30;;;;;;;17.45;6.97;;;16.20;80.80;;;;;;4936691;29;20108;-87
2021/07/16 05:39:57;;;;;;;16.52;6.78;;;16.20;80.70;;;;;;4936932;28;20107;-90
2021/07/16 05:42:25;;;;;;;11.80;6.15;;;16.20;80.70;;;;;;4936890;28;20546;-86
2021/07/16 05:44:53;;;;;;;17.35;6.97;;;16.20;80.70;;;;;;4936554;29;20078;-90
2021/07/16 05:47:21;;;;;;;15.65;5.80;;;16.20;80.70;;;;;;4936319;29;20062;-88
2021/07/16 05:49:49;;;;;;;16.33;6.38;;;16.20;80.60;;;;;;4936758;28;20060;-92
2021/07/16 05:52:16;;;;;;;18.77;6.22;;;16.20;80.60;;;;;;4936396;29;20051;-88
2021/07/16 05:54:43;;;;;;;17.35;6.60;;;16.20;80.60;;;;;;4936426;29;20052;-89
2021/07/16 05:57:10;;;;;;;20.23;6.97;;;16.20;80.70;;;;;;4936235;28;20043;-89
2021/07/16 05:59:46;;;;;;;15.23;6.07;;;16.20;80.70;;;;;;4936053;28;20570;-89
2021/07/16 06:02:14;;;;;;;15.05;5.70;;;16.20;80.80;;;;;;4936083;28;20423;-89
2021/07/16 06:04:42;;;;;;;16.75;6.05;;;16.20;80.70;;;;;;4936072;29;20155;-88
2021/07/16 06:07:16;;;;;;;21.58;5.88;;;16.20;80.70;;;;;;4936213;29;20062;-89
2021/07/16 06:09:46;;;;;;;16.70;6.40;;;16.20;80.50;;;;;;4936131;28;20062;-87
2021/07/16 06:12:23;;;;;;;15.02;6.03;;;16.20;80.50;;;;;;4936087;28;20059;-85
2021/07/16 06:14:55;;;;;;;14.25;6.03;;;16.20;80.50;;;;;;4938983;28;20047;-84
2021/07/16 06:17:23;;;;;;;19.20;6.13;;;16.20;80.60;;;;;;4935909;29;20059;-85
2021/07/16 06:19:52;;;;;;;18.92;6.25;;;16.30;80.50;;;;;;4935592;28;20102;-84
2021/07/16 06:22:19;;;;;;;19.65;7.00;;;16.20;80.50;;;;;;4935969;29;20554;-85
2021/07/16 06:25:08;;;;;;;15.40;6.32;;;16.20;80.40;;;;;;4933156;28;20111;-85
2021/07/16 06:56:21;;;;;;;12.93;5.68;;;16.30;80.10;;;;;;4856791;29;20068;-87
2021/07/16 07:07:06;;;;;;;18.02;5.85;;;16.30;79.90;;;;;;4727884;30;20047;-87
2021/07/16 09:37:20;;;;;;;23.83;5.38;;;17.20;76.20;;;;;;6217771;22;1490736;-74
2021/07/16 09:39:47;;;;;;;14.48;5.45;;;17.50;77.10;;;;;;6284076;22;20049;-77
2021/07/16 09:42:15;;;;;;;17.63;5.75;;;17.60;76.70;;;;;;6282698;22;20019;-73
2021/07/16 09:44:42;;;;;;;18.30;5.55;;;17.80;75.80;;;;;;6283796;22;20029;-76
2021/07/16 09:47:16;;;;;;;13.52;4.82;;;17.90;76.60;;;;;;6283768;22;20020;-75
2021/07/16 09:49:45;;;;;;;22.17;5.40;;;17.90;76.30;;;;;;6283486;22;20015;-75
2021/07/16 09:52:15;;;;;;;18.35;4.85;;;18.00;74.70;;;;;;6283357;22;20022;-74
2021/07/16 09:55:10;;;;;;;17.25;5.35;;;18.00;74.70;;;;;;6282224;22;20026;-73
2021/07/16 09:57:40;;;;;;;18.30;4.75;;;18.10;75.60;;;;;;6283546;22;20026;-74
2021/07/16 10:00:27;;;;;;;21.88;5.30;;;18.20;74.40;;;;;;6283611;22;20016;-75
2021/07/16 10:02:56;;;;;;;19.17;5.30;;;18.20;74.70;;;;;;6283167;22;20095;-74
2021/07/16 10:05:24;;;;;;;19.73;5.38;;;18.20;75.50;;;;;;6283265;22;20053;-75
2021/07/16 10:07:52;;;;;;;21.25;5.95;;;18.30;75.70;;;;;;6283383;22;20026;-75
2021/07/16 10:10:23;;;;;;;17.63;4.55;;;18.30;75.20;;;;;;6283634;22;20039;-73
2021/07/16 10:12:52;;;;;;;18.55;5.22;;;18.40;73.40;;;;;;6283867;22;20019;-74
2021/07/16 10:15:20;;;;;;;18.40;4.63;;;18.40;72.50;;;;;;6282012;22;20020;-74
2021/07/16 10:17:49;;;;;;;14.68;5.13;;;18.40;74.30;;;;;;6283702;22;20020;-74
2021/07/16 10:20:18;;;;;;;21.02;5.07;;;18.40;75.10;;;;;;6283118;22;20030;-74
2021/07/16 10:22:48;;;;;;;15.98;4.68;;;18.40;74.90;;;;;;6282894;22;20030;-74
2021/07/16 10:25:17;;;;;;;17.30;4.53;;;18.40;75.00;;;;;;6281742;22;20478;-74
2021/07/16 10:27:45;;;;;;;22.83;4.93;;;18.40;74.90;;;;;;6283346;22;20022;-73
2021/07/16 10:30:13;;;;;;;19.42;4.90;;;18.50;71.90;;;;;;6281702;22;20099;-75
2021/07/16 10:32:54;;;;;;;16.50;5.15;;;18.60;72.20;;;;;;6283349;22;20015;-74
2021/07/16 10:35:25;;;;;;;19.02;4.82;;;18.70;74.40;;;;;;6283512;22;20020;-74
2021/07/16 10:37:55;;;;;;;18.85;5.20;;;18.70;75.20;;;;;;6245940;23;20028;-74
2021/07/16 10:40:41;;;;;;;18.38;5.07;;;18.90;74.70;;;;;;6245835;23;20032;-74
2021/07/16 10:43:27;;;;;;;15.85;5.00;;;18.90;72.40;;;;;;6245977;23;20047;-74
2021/07/16 10:46:02;;;;;;;17.77;4.50;;;18.90;73.40;;;;;;6244828;23;20062;-74
2021/07/16 10:48:38;;;;;;;18.95;3.67;;;19.00;74.20;;;;;;6245248;23;20095;-74
2021/07/16 10:51:07;;;;;;;19.05;5.22;;;19.00;71.70;;;;;;6245556;23;20020;-75
2021/07/16 10:53:34;;;;;;;14.90;4.55;;;19.00;72.20;;;;;;6218061;23;20020;-74
2021/07/16 10:56:06;;;;;;;17.20;4.47;;;19.00;73.40;;;;;;6244483;23;20484;-74
2021/07/16 10:58:35;;;;;;;19.27;4.35;;;19.20;75.40;;;;;;6245722;23;20058;-75
2021/07/16 11:01:05;;;;;;;17.38;4.68;;;19.20;73.00;;;;;;6219087;23;20024;-74
2021/07/16 11:03:46;;;;;;;16.42;3.97;;;19.20;72.80;;;;;;6245191;23;20086;-74
2021/07/16 11:06:15;;;;;;;17.90;4.25;;;19.20;70.20;;;;;;6218213;23;20095;-74
2021/07/16 11:08:43;;;;;;;15.60;3.67;;;19.30;72.00;;;;;;6245436;23;20046;-74
2021/07/16 11:11:12;;;;;;;17.80;4.07;;;19.30;70.40;;;;;;6245730;23;20039;-74
2021/07/16 11:13:54;;;;;;;23.73;4.35;;;19.30;70.60;;;;;;6245231;23;20042;-74
2021/07/16 11:16:25;;;;;;;19.80;4.82;;;19.30;72.20;;;;;;6245190;23;20062;-75
2021/07/16 11:19:03;;;;;;;15.65;4.55;;;19.40;71.70;;;;;;6245480;23;20047;-76
2021/07/16 11:21:42;;;;;;;23.08;4.90;;;19.40;71.40;;;;;;6245252;23;20070;-74
2021/07/16 11:24:24;;;;;;;18.35;4.30;;;19.60;72.10;;;;;;6245433;23;20024;-74
2021/07/16 11:26:59;;;;;;;18.48;4.20;;;19.60;69.90;;;;;;6245473;23;20325;-74
2021/07/16 11:29:39;;;;;;;14.43;4.45;;;19.70;72.60;;;;;;6245281;23;20107;-74
2021/07/16 11:32:07;;;;;;;17.40;4.45;;;19.80;73.10;;;;;;6245336;23;20016;-74
2021/07/16 11:34:36;;;;;;;14.65;3.90;;;19.90;73.00;;;;;;6244402;23;20071;-74
2021/07/16 11:37:05;;;;;;;14.88;3.80;;;19.90;70.70;;;;;;6255522;22;20028;-74
2021/07/16 11:39:37;;;;;;;16.23;4.68;;;19.90;70.10;;;;;;6275956;22;20359;-75
2021/07/16 11:42:07;;;;;;;14.38;4.30;;;20.00;71.60;;;;;;6275812;22;20020;-75
2021/07/16 11:44:43;;;;;;;18.60;4.30;;;20.00;72.60;;;;;;6274968;22;20095;-74
2021/07/16 11:47:27;;;;;;;21.33;4.25;;;20.10;72.30;;;;;;6274919;22;20016;-74
2021/07/16 11:50:03;;;;;;;16.60;4.13;;;20.20;72.90;;;;;;6274598;22;20350;-75
2021/07/16 11:52:32;;;;;;;15.60;4.88;;;20.30;72.00;;;;;;6274100;22;20386;-74
2021/07/16 11:55:15;;;;;;;17.80;4.18;;;20.40;72.00;;;;;;6275884;22;20367;-75
2021/07/16 11:57:58;;;;;;;12.82;3.42;;;20.40;72.00;;;;;;6275320;22;20486;-74
2021/07/16 12:00:41;;;;;;;14.10;3.55;;;20.50;71.80;;;;;;6275943;22;20022;-75
2021/07/16 12:03:18;;;;;;;18.63;3.85;;;20.50;71.50;;;;;;6275888;22;20016;-76
2021/07/16 12:05:53;;;;;;;12.05;3.50;;;20.60;71.40;;;;;;6274778;22;20026;-74
2021/07/16 12:08:25;;;;;;;15.68;3.80;;;20.60;71.20;;;;;;6275751;22;20024;-74
2021/07/16 12:11:14;;;;;;;12.15;4.05;;;20.60;71.90;;;;;;6275791;22;20024;-75
2021/07/16 12:13:42;;;;;;;20.08;4.43;;;20.70;72.30;;;;;;6274551;22;20510;-74
2021/07/16 12:16:13;;;;;;;21.48;4.07;;;20.70;72.70;;;;;;6275476;22;20024;-74
2021/07/16 12:18:41;;;;;;;15.07;4.10;;;20.80;72.40;;;;;;6275347;22;20024;-74
2021/07/16 12:21:13;;;;;;;17.45;4.10;;;20.90;71.90;;;;;;6275223;22;20020;-75
2021/07/16 12:23:42;;;;;;;18.30;4.82;;;21.00;71.10;;;;;;6275375;22;20027;-74
2021/07/16 12:26:20;;;;;;;21.73;4.05;;;21.20;72.10;;;;;;6275503;22;20026;-75
2021/07/16 12:28:50;;;;;;;24.00;4.57;;;21.30;71.80;;;;;;6275051;22;20351;-74
2021/07/16 12:31:22;;;;;;;18.48;3.80;;;21.40;72.00;;;;;;6274106;22;20026;-77
2021/07/16 12:33:50;;;;;;;17.08;4.55;;;21.50;70.70;;;;;;6274211;22;20459;-74
2021/07/16 12:36:25;;;;;;;18.55;4.40;;;21.70;71.00;;;;;;6273454;22;20042;-75
2021/07/16 12:38:56;;;;;;;16.75;4.38;;;21.80;70.50;;;;;;6275337;22;20047;-74
2021/07/16 12:41:24;;;;;;;18.20;4.03;;;21.90;69.60;;;;;;6275595;22;20027;-74
2021/07/16 12:43:51;;;;;;;20.65;4.53;;;22.00;69.60;;;;;;6273256;22;20027;-75
2021/07/16 12:46:26;;;;;;;16.25;4.28;;;22.10;70.00;;;;;;6273535;22;20019;-74
2021/07/16 12:48:53;;;;;;;13.52;3.88;;;22.10;66.90;;;;;;6275507;22;20400;-75
2021/07/16 12:51:22;;;;;;;18.15;4.47;;;22.30;67.50;;;;;;6275201;22;20019;-74
2021/07/16 12:53:54;;;;;;;15.73;4.45;;;22.30;68.80;;;;;;6274997;22;20020;-74
2021/07/16 12:56:21;;;;;;;16.45;4.00;;;22.40;68.80;;;;;;6274885;22;20513;-75
2021/07/16 12:58:51;;;;;;;21.00;3.92;;;22.40;69.30;;;;;;6274463;22;20020;-73
2021/07/16 13:01:31;;;;;;;15.15;4.10;;;22.40;69.60;;;;;;6274936;22;20031;-74
2021/07/16 13:04:16;;;;;;;13.20;3.55;;;22.60;67.00;;;;;;6275492;22;20023;-75
2021/07/16 13:06:44;;;;;;;19.75;4.97;;;22.60;68.10;;;;;;6274385;22;20486;-74
2021/07/16 13:09:23;;;;;;;20.13;4.00;;;22.70;68.70;;;;;;6275169;22;20016;-76
2021/07/16 13:12:18;;;;;;;15.07;4.10;;;22.80;68.00;;;;;;6274762;22;20363;-74
2021/07/16 13:14:59;;;;;;;17.80;4.05;;;22.90;67.30;;;;;;6273064;22;20022;-75
2021/07/16 13:17:36;;;;;;;15.82;3.80;;;23.00;63.80;;;;;;6274577;22;20039;-75
2021/07/16 13:20:13;;;;;;;17.27;3.58;;;23.10;68.60;;;;;;6273175;22;20026;-75
2021/07/16 13:22:42;;;;;;;15.68;4.18;;;23.20;64.90;;;;;;6275434;22;20057;-74
2021/07/16 13:25:14;;;;;;;16.13;4.03;;;23.30;63.80;;;;;;6274908;22;20027;-74
2021/07/16 13:27:43;;;;;;;12.18;3.85;;;23.30;63.90;;;;;;6273880;22;20055;-74
2021/07/16 13:30:12;;;;;;;18.55;3.70;;;23.40;66.00;;;;;;6275394;22;20015;-75
2021/07/16 13:32:44;;;;;;;16.92;4.03;;;23.40;64.80;;;;;;6274880;22;20026;-75
2021/07/16 13:35:12;;;;;;;14.13;3.72;;;23.50;63.60;;;;;;6273786;22;20022;-75
2021/07/16 13:37:40;;;;;;;15.73;3.90;;;23.60;63.50;;;;;;6274557;22;20024;-75
2021/07/16 13:40:08;;;;;;;12.93;3.70;;;23.70;64.60;;;;;;6274910;22;20019;-74
2021/07/16 13:42:36;;;;;;;13.82;3.67;;;23.90;61.20;;;;;;6273957;22;20019;-75
2021/07/16 13:45:04;;;;;;;16.85;4.05;;;24.00;63.70;;;;;;6274715;22;20023;-75
2021/07/16 13:47:32;;;;;;;15.68;4.25;;;24.10;64.40;;;;;;6275911;22;20459;-75
2021/07/16 13:49:59;;;;;;;16.88;3.97;;;24.10;65.10;;;;;;6275644;22;20020;-75
2021/07/16 13:52:26;;;;;;;21.65;4.57;;;24.20;64.90;;;;;;6275573;22;20407;-74
2021/07/16 13:54:53;;;;;;;18.08;3.80;;;24.30;63.20;;;;;;6275792;22;20431;-75
2021/07/16 13:57:21;;;;;;;13.55;3.95;;;24.40;61.60;;;;;;6275185;22;20026;-74
2021/07/16 13:59:48;;;;;;;14.77;4.03;;;24.50;63.10;;;;;;6275670;22;20026;-75
2021/07/16 14:02:16;;;;;;;19.95;4.18;;;24.70;64.80;;;;;;6276037;22;20020;-75
2021/07/16 14:04:43;;;;;;;12.90;3.78;;;24.90;60.50;;;;;;6276065;22;20024;-75
2021/07/16 14:07:10;;;;;;;17.25;3.90;;;25.10;63.30;;;;;;6275372;22;20016;-74
2021/07/16 14:09:37;;;;;;;12.77;4.18;;;25.20;62.60;;;;;;6275980;22;20015;-75
2021/07/16 14:12:05;;;;;;;17.83;3.85;;;25.40;59.10;;;;;;6276267;22;20027;-74
2021/07/16 14:14:33;;;;;;;18.20;4.30;;;25.70;60.90;;;;;;6277452;22;20073;-74
2021/07/16 14:17:00;;;;;;;12.85;3.25;;;25.90;62.30;;;;;;6277451;22;20077;-75
2021/07/16 14:19:28;;;;;;;13.55;4.03;;;26.20;59.90;;;;;;6276220;22;20016;-75
2021/07/16 14:21:55;;;;;;;15.80;4.10;;;26.40;61.00;;;;;;6277793;22;20033;-78
2021/07/16 14:24:22;;;;;;;11.27;3.60;;;26.60;57.80;;;;;;6277819;22;20038;-74
2021/07/16 14:26:49;;;;;;;10.82;3.58;;;26.90;58.70;;;;;;6277469;22;20019;-74
2021/07/16 14:29:17;;;;;;;18.27;4.32;;;27.30;57.00;;;;;;6277727;22;20023;-75
2021/07/16 14:31:44;;;;;;;13.68;3.92;;;27.50;58.20;;;;;;6277335;22;20486;-75
2021/07/16 14:34:11;;;;;;;18.17;3.90;;;27.80;58.80;;;;;;6277218;22;20090;-75
2021/07/16 14:36:38;;;;;;;14.38;3.22;;;28.00;55.10;;;;;;6277211;22;20027;-75
2021/07/16 14:39:05;;;;;;;10.68;3.28;;;28.20;54.70;;;;;;6277616;22;20035;-77
2021/07/16 14:41:32;;;;;;;15.27;4.20;;;28.30;55.50;;;;;;6275952;22;20034;-75
2021/07/16 14:44:00;;;;;;;12.70;4.30;;;28.50;53.40;;;;;;6277566;22;20019;-75
2021/07/16 14:46:30;;;;;;;12.68;3.75;;;28.60;55.00;;;;;;6275841;22;20035;-75
2021/07/16 14:48:57;;;;;;;12.27;3.78;;;28.80;55.50;;;;;;6277144;22;20019;-75
2021/07/16 14:51:24;;;;;;;12.48;4.05;;;28.90;54.10;;;;;;6277156;22;20471;-75
2021/07/16 14:53:51;;;;;;;14.90;4.15;;;29.00;52.20;;;;;;6277110;22;20022;-75
2021/07/16 14:56:18;;;;;;;14.73;4.53;;;29.10;53.80;;;;;;6276876;22;20028;-75
2021/07/16 14:58:45;;;;;;;15.18;4.82;;;29.30;50.10;;;;;;6276962;22;20047;-75
2021/07/16 15:01:12;;;;;;;16.77;3.72;;;29.40;51.80;;;;;;6275937;22;20020;-75
2021/07/16 15:03:40;;;;;;;18.23;4.22;;;29.40;50.90;;;;;;6275941;22;20402;-77
2021/07/16 15:06:07;;;;;;;11.98;4.20;;;29.30;53.30;;;;;;6276895;22;20020;-75
2021/07/16 15:08:35;;;;;;;14.82;3.70;;;29.30;51.10;;;;;;6277020;22;20022;-75
2021/07/16 15:11:03;;;;;;;16.27;3.78;;;29.30;52.10;;;;;;6276811;22;20015;-75
2021/07/16 15:13:30;;;;;;;11.35;3.35;;;29.30;50.70;;;;;;6277398;22;20016;-76
2021/07/16 15:15:57;;;;;;;15.20;3.47;;;29.40;49.20;;;;;;6276736;22;20490;-75
2021/07/16 15:18:24;;;;;;;13.43;3.72;;;29.40;50.80;;;;;;6276646;22;20386;-74
2021/07/16 15:20:51;;;;;;;12.40;3.75;;;29.40;50.80;;;;;;6277274;22;20022;-76
2021/07/16 15:23:19;;;;;;;14.73;4.30;;;29.40;50.10;;;;;;6277117;22;20019;-77
2021/07/16 15:25:46;;;;;;;15.00;3.63;;;29.50;52.20;;;;;;6275032;22;20022;-75
2021/07/16 15:28:13;;;;;;;11.57;3.67;;;29.40;52.50;;;;;;6276712;22;20016;-74
2021/07/16 15:30:41;;;;;;;11.20;3.72;;;29.40;50.70;;;;;;6277126;22;20019;-75
2021/07/16 15:33:08;;;;;;;14.20;3.80;;;29.30;49.60;;;;;;6276981;22;20358;-75
2021/07/16 15:35:55;;;;;;;15.18;4.05;;;29.30;53.10;;;;;;6275203;22;20455;-74
2021/07/16 15:38:22;;;;;;;10.40;3.65;;;29.20;52.20;;;;;;6276701;22;20023;-75
2021/07/16 15:40:49;;;;;;;12.32;3.83;;;29.10;53.10;;;;;;6277196;22;20097;-77
2021/07/16 15:43:16;;;;;;;13.23;3.88;;;29.10;53.60;;;;;;6276591;22;20442;-74
2021/07/16 15:45:43;;;;;;;12.52;3.63;;;29.20;53.20;;;;;;6276525;22;20505;-76
2021/07/16 15:48:10;;;;;;;10.73;3.67;;;29.20;54.80;;;;;;6275021;22;20482;-75
2021/07/16 15:50:37;;;;;;;10.93;3.72;;;29.20;53.80;;;;;;6275035;22;20019;-74
2021/07/16 15:53:06;;;;;;;14.50;4.78;;;29.20;52.60;;;;;;6276467;22;20016;-76
2021/07/16 15:55:33;;;;;;;16.35;4.13;;;29.30;48.20;;;;;;6276878;22;20022;-76
2021/07/16 15:58:00;;;;;;;13.05;4.00;;;29.20;50.70;;;;;;6274886;22;20073;-77
2021/07/16 16:00:27;;;;;;;15.90;3.53;;;29.10;50.40;;;;;;6276821;22;20363;-75
2021/07/16 16:02:56;;;;;;;13.80;3.58;;;29.10;49.40;;;;;;6276255;22;20467;-79
2021/07/16 16:05:24;;;;;;;14.45;4.05;;;28.90;48.70;;;;;;6275178;22;20020;-74